createdAt,value
2018-05-29T00:01:11.407Z,2.57
2018-05-29T00:03:40.304Z,2.30
2018-05-29T00:06:09.973Z,2.10
2018-05-29T00:08:39.077Z,2.17
2018-05-29T00:11:08.915Z,2.30
2018-05-29T00:13:38.837Z,1.80
2018-05-29T00:16:08.125Z,1.80
2018-05-29T00:18:37.033Z,1.80
2018-05-29T00:21:06.001Z,2.10
2018-05-29T00:23:35.654Z,2.20
2018-05-29T00:26:04.557Z,2.23
2018-05-29T00:28:33.801Z,1.97
2018-05-29T00:31:03.470Z,2.00
2018-05-29T00:33:32.489Z,2.10
2018-05-29T00:36:01.388Z,1.87
2018-05-29T00:38:31.050Z,2.40
2018-05-29T00:40:59.948Z,1.90
2018-05-29T00:43:28.852Z,1.80
2018-05-29T00:45:57.748Z,2.00
2018-05-29T00:48:26.955Z,2.00
2018-05-29T00:50:56.614Z,1.93
2018-05-29T00:53:25.901Z,1.97
2018-05-29T00:55:54.798Z,1.83
2018-05-29T00:58:23.684Z,2.00
2018-05-29T01:00:54.079Z,2.10
2018-05-29T01:03:23.738Z,2.40
2018-05-29T01:05:52.657Z,2.20
2018-05-29T01:08:22.262Z,2.03
2018-05-29T01:10:51.242Z,1.90
2018-05-29T01:13:20.239Z,2.00
2018-05-29T01:15:49.127Z,1.70
2018-05-29T01:18:18.217Z,1.97
2018-05-29T01:20:48.453Z,1.67
2018-05-29T01:23:17.196Z,1.87
2018-05-29T01:25:46.101Z,2.03
2018-05-29T01:28:14.996Z,1.80
2018-05-29T01:30:43.962Z,1.87
2018-05-29T01:33:12.870Z,2.13
2018-05-29T01:35:41.758Z,2.07
2018-05-29T01:38:10.670Z,2.30
2018-05-29T01:40:39.555Z,1.50
2018-05-29T01:43:09.072Z,1.90
2018-05-29T01:45:37.977Z,1.83
2018-05-29T01:48:07.635Z,1.43
2018-05-29T01:50:37.300Z,1.60
2018-05-29T01:53:06.274Z,2.30
2018-05-29T01:55:35.942Z,1.90
2018-05-29T01:58:05.273Z,1.60
2018-05-29T02:00:34.171Z,2.00
2018-05-29T02:03:09.030Z,2.23
2018-05-29T02:05:37.923Z,1.97
2018-05-29T02:08:07.067Z,2.00
2018-05-29T02:10:36.170Z,2.00
2018-05-29T02:13:05.058Z,2.00
2018-05-29T02:15:33.954Z,1.80
2018-05-29T02:18:03.615Z,1.90
2018-05-29T02:20:32.597Z,1.73
2018-05-29T02:23:01.563Z,2.07
2018-05-29T02:25:30.458Z,2.00
2018-05-29T02:27:59.384Z,2.30
2018-05-29T02:30:28.268Z,1.60
2018-05-29T02:32:57.277Z,1.73
2018-05-29T02:35:26.241Z,1.87
2018-05-29T02:37:55.317Z,1.57
2018-05-29T02:40:24.393Z,2.00
2018-05-29T02:42:54.297Z,1.70
2018-05-29T02:45:24.220Z,1.80
2018-05-29T02:47:54.083Z,1.90
2018-05-29T02:50:22.986Z,2.00
2018-05-29T02:52:51.876Z,1.90
2018-05-29T02:55:21.166Z,2.23
2018-05-29T02:57:50.062Z,1.93
2018-05-29T03:00:19.269Z,1.70
2018-05-29T03:02:48.370Z,1.67
2018-05-29T03:05:17.264Z,1.60
2018-05-29T03:07:46.473Z,1.70
2018-05-29T03:10:16.385Z,1.97
2018-05-29T03:12:46.042Z,1.97
2018-05-29T03:15:15.073Z,1.70
2018-05-29T03:17:43.977Z,1.80
2018-05-29T03:20:13.628Z,1.60
2018-05-29T03:22:42.675Z,1.67
2018-05-29T03:25:12.424Z,1.77
2018-05-29T03:27:41.321Z,1.90
2018-05-29T03:30:10.217Z,1.63
2018-05-29T03:32:39.960Z,1.80
2018-05-29T03:35:08.841Z,1.60
2018-05-29T03:37:37.739Z,1.70
2018-05-29T03:40:07.201Z,1.83
2018-05-29T03:42:36.242Z,1.60
2018-05-29T03:45:06.757Z,1.87
2018-05-29T03:47:35.649Z,1.67
2018-05-29T03:50:04.550Z,1.70
2018-05-29T03:52:33.492Z,1.37
2018-05-29T03:55:02.542Z,1.43
2018-05-29T03:57:31.659Z,1.93
2018-05-29T04:00:00.825Z,2.00
2018-05-29T04:02:30.481Z,1.90
2018-05-29T04:04:59.375Z,1.90
2018-05-29T04:07:28.504Z,1.90
2018-05-29T04:09:57.437Z,1.80
2018-05-29T04:12:26.602Z,1.60
2018-05-29T04:14:57.381Z,1.90
2018-05-29T04:17:26.514Z,1.80
2018-05-29T04:19:56.917Z,1.60
2018-05-29T04:22:25.813Z,1.37
2018-05-29T04:24:54.701Z,1.80
2018-05-29T04:27:23.600Z,1.70
2018-05-29T04:29:52.494Z,1.70
2018-05-29T04:32:21.385Z,1.60
2018-05-29T04:34:50.284Z,1.57
2018-05-29T04:37:19.180Z,1.67
2018-05-29T04:39:48.076Z,1.90
2018-05-29T04:42:17.739Z,1.73
2018-05-29T04:44:46.628Z,1.40
2018-05-29T04:47:15.527Z,1.57
2018-05-29T04:49:45.261Z,1.80
2018-05-29T04:52:14.084Z,1.80
2018-05-29T04:54:42.975Z,1.50
2018-05-29T04:57:11.905Z,1.90
2018-05-29T04:59:40.999Z,1.70
2018-05-29T05:02:10.072Z,1.90
2018-05-29T05:04:39.344Z,2.10
2018-05-29T05:07:08.538Z,1.83
2018-05-29T05:09:37.430Z,1.70
2018-05-29T05:12:06.325Z,1.90
2018-05-29T05:14:35.208Z,1.43
2018-05-29T05:17:04.105Z,1.47
2018-05-29T05:19:33.381Z,1.70
2018-05-29T05:22:03.290Z,1.60
2018-05-29T05:24:33.209Z,1.67
2018-05-29T05:27:02.869Z,1.80
2018-05-29T05:29:32.237Z,1.30
2018-05-29T05:32:01.121Z,1.83
2018-05-29T05:34:30.009Z,1.47
2018-05-29T05:36:58.906Z,1.30
2018-05-29T05:39:27.807Z,1.70
2018-05-29T05:41:56.690Z,1.67
2018-05-29T05:44:25.604Z,2.10
2018-05-29T05:46:54.473Z,1.83
2018-05-29T05:49:23.744Z,1.90
2018-05-29T05:51:52.845Z,1.50
2018-05-29T05:54:21.742Z,1.70
2018-05-29T05:56:50.632Z,1.53
2018-05-29T05:59:19.811Z,2.10
2018-05-29T06:01:49.202Z,1.47
2018-05-29T06:04:18.861Z,1.70
2018-05-29T06:06:47.888Z,1.27
2018-05-29T06:09:16.782Z,1.50
2018-05-29T06:11:46.473Z,1.73
2018-05-29T06:14:15.429Z,1.70
2018-05-29T06:16:44.311Z,1.37
2018-05-29T06:19:13.677Z,1.70
2018-05-29T06:21:43.602Z,1.90
2018-05-29T06:24:14.020Z,1.60
2018-05-29T06:26:42.900Z,1.63
2018-05-29T06:29:11.809Z,1.63
2018-05-29T06:31:41.461Z,1.50
2018-05-29T06:34:10.378Z,1.70
2018-05-29T06:36:40.037Z,1.70
2018-05-29T06:39:08.933Z,1.60
2018-05-29T06:41:37.945Z,1.50
2018-05-29T06:44:07.244Z,1.63
2018-05-29T06:46:37.005Z,1.57
2018-05-29T06:49:06.662Z,1.40
2018-05-29T06:51:36.421Z,1.60
2018-05-29T06:54:06.081Z,1.57
2018-05-29T06:56:35.103Z,1.50
2018-05-29T06:59:04.521Z,2.07
2018-05-29T07:01:34.425Z,1.43
2018-05-29T07:04:04.087Z,1.80
2018-05-29T07:06:32.992Z,1.57
2018-05-29T07:09:01.892Z,1.70
2018-05-29T07:11:30.810Z,1.53
2018-05-29T07:14:00.480Z,1.70
2018-05-29T07:16:29.373Z,1.70
2018-05-29T07:18:58.268Z,1.27
2018-05-29T07:21:27.171Z,1.47
2018-05-29T07:23:56.459Z,1.43
2018-05-29T07:26:25.353Z,1.60
2018-05-29T07:28:55.048Z,1.50
2018-05-29T07:31:23.920Z,1.70
2018-05-29T07:33:53.282Z,1.37
2018-05-29T07:36:22.575Z,1.57
2018-05-29T07:38:52.533Z,1.73
2018-05-29T07:41:22.135Z,1.30
2018-05-29T07:43:51.052Z,1.00
2018-05-29T07:46:19.958Z,1.43
2018-05-29T07:48:48.860Z,1.93
2018-05-29T07:51:18.525Z,1.90
2018-05-29T07:53:47.543Z,1.87
2018-05-29T07:56:16.453Z,1.60
2018-05-29T07:58:46.165Z,1.43
2018-05-29T08:01:15.771Z,1.40
2018-05-29T08:03:45.420Z,1.37
2018-05-29T08:06:14.439Z,1.63
2018-05-29T08:08:43.333Z,1.20
2018-05-29T08:11:12.249Z,1.30
2018-05-29T08:13:41.140Z,1.50
2018-05-29T08:16:10.436Z,1.60
2018-05-29T08:18:40.095Z,1.27
2018-05-29T08:21:08.984Z,1.70
2018-05-29T08:23:37.897Z,1.43
2018-05-29T08:26:06.795Z,1.53
2018-05-29T08:28:35.992Z,1.20
2018-05-29T08:31:05.307Z,1.40
2018-05-29T08:33:34.186Z,1.40
2018-05-29T08:36:04.110Z,1.50
2018-05-29T08:38:33.757Z,1.37
2018-05-29T08:41:02.798Z,1.40
2018-05-29T08:43:31.676Z,1.50
2018-05-29T08:46:01.419Z,1.40
2018-05-29T08:48:30.384Z,1.40
2018-05-29T08:51:00.045Z,1.70
2018-05-29T08:53:28.946Z,1.43
2018-05-29T08:55:57.846Z,1.80
2018-05-29T08:58:27.194Z,1.80
2018-05-29T09:00:56.088Z,1.33
2018-05-29T09:03:25.050Z,1.43
2018-05-29T09:05:53.942Z,1.53
2018-05-29T09:08:22.829Z,1.67
2018-05-29T09:10:52.229Z,2.10
2018-05-29T09:13:21.114Z,1.43
2018-05-29T09:15:50.001Z,2.10
2018-05-29T09:18:19.011Z,1.87
2018-05-29T09:20:47.903Z,2.20
2018-05-29T09:23:17.303Z,2.03
2018-05-29T09:25:47.186Z,1.63
2018-05-29T09:28:16.079Z,1.63
2018-05-29T09:30:45.055Z,1.70
2018-05-29T09:33:13.948Z,1.53
2018-05-29T09:35:43.178Z,1.70
2018-05-29T09:38:12.841Z,1.60
2018-05-29T09:40:43.053Z,1.53
2018-05-29T09:43:11.733Z,1.90
2018-05-29T09:45:41.126Z,1.70
2018-05-29T09:48:10.385Z,2.40
2018-05-29T09:50:39.381Z,1.70
2018-05-29T09:53:09.043Z,2.07
2018-05-29T09:55:37.983Z,1.67
2018-05-29T09:58:07.897Z,1.70
2018-05-29T10:00:40.472Z,2.27
2018-05-29T10:03:09.371Z,2.00
2018-05-29T10:05:39.764Z,1.90
2018-05-29T10:08:08.877Z,1.93
2018-05-29T10:10:38.649Z,2.20
2018-05-29T10:13:07.645Z,2.10
2018-05-29T10:15:36.537Z,1.90
2018-05-29T10:18:05.423Z,1.70
2018-05-29T10:20:34.339Z,1.90
2018-05-29T10:23:03.300Z,1.73
2018-05-29T10:25:32.193Z,2.30
2018-05-29T10:28:01.849Z,2.23
2018-05-29T10:30:31.037Z,1.90
2018-05-29T10:33:00.693Z,1.57
2018-05-29T10:35:29.637Z,2.13
2018-05-29T10:37:59.551Z,1.73
2018-05-29T10:40:29.209Z,1.83
2018-05-29T10:42:58.874Z,1.60
2018-05-29T10:45:27.754Z,2.37
2018-05-29T10:47:57.649Z,2.10
2018-05-29T10:50:27.074Z,2.10
2018-05-29T10:52:56.975Z,2.00
2018-05-29T10:55:26.641Z,2.03
2018-05-29T10:57:55.581Z,2.30
2018-05-29T11:00:25.241Z,2.30
2018-05-29T11:02:54.133Z,2.30
2018-05-29T11:05:23.025Z,2.20
2018-05-29T11:07:52.769Z,2.30
2018-05-29T11:10:23.275Z,1.87
2018-05-29T11:12:52.941Z,1.93
2018-05-29T11:15:21.844Z,1.50
2018-05-29T11:17:50.721Z,2.90
2018-05-29T11:20:19.882Z,2.20
2018-05-29T11:22:49.545Z,2.27
2018-05-29T11:25:18.719Z,1.77
2018-05-29T11:27:47.827Z,2.40
2018-05-29T11:30:16.753Z,2.50
2018-05-29T11:32:45.648Z,2.20
2018-05-29T11:35:14.552Z,2.30
2018-05-29T11:37:43.445Z,2.20
2018-05-29T11:40:13.481Z,2.03
2018-05-29T11:42:42.429Z,2.07
2018-05-29T11:45:11.730Z,2.53
2018-05-29T11:47:41.564Z,2.50
2018-05-29T11:50:11.462Z,2.20
2018-05-29T11:52:41.152Z,2.00
2018-05-29T11:55:10.078Z,2.13
2018-05-29T11:57:40.000Z,1.87
2018-05-29T12:00:09.272Z,2.27
2018-05-29T12:02:38.177Z,2.23
2018-05-29T12:05:07.841Z,2.40
2018-05-29T12:07:36.918Z,2.30
2018-05-29T12:10:05.768Z,2.30
2018-05-29T12:12:34.653Z,2.13
2018-05-29T12:15:03.649Z,1.87
2018-05-29T12:17:32.863Z,2.30
2018-05-29T12:20:01.770Z,2.17
2018-05-29T12:22:30.917Z,2.40
2018-05-29T12:25:00.577Z,2.20
2018-05-29T12:27:29.527Z,2.33
2018-05-29T12:29:59.184Z,2.77
2018-05-29T12:32:28.203Z,2.70
2018-05-29T12:34:57.213Z,2.87
2018-05-29T12:37:26.882Z,2.07
2018-05-29T12:39:55.764Z,2.57
2018-05-29T12:42:28.236Z,2.20
2018-05-29T12:44:57.109Z,2.23
2018-05-29T12:47:26.245Z,2.50
2018-05-29T12:49:55.472Z,2.63
2018-05-29T12:52:24.764Z,2.27
2018-05-29T12:54:54.064Z,2.00
2018-05-29T12:57:23.726Z,2.50
2018-05-29T12:59:53.065Z,2.70
2018-05-29T13:02:22.986Z,2.60
2018-05-29T13:04:52.645Z,2.40
2018-05-29T13:07:21.541Z,2.77
2018-05-29T13:09:50.442Z,2.73
2018-05-29T13:12:19.453Z,2.40
2018-05-29T13:14:48.349Z,2.80
2018-05-29T13:17:17.238Z,2.30
2018-05-29T13:19:46.895Z,2.73
2018-05-29T13:22:15.789Z,2.90
2018-05-29T13:24:44.835Z,3.20
2018-05-29T13:27:14.493Z,3.20
2018-05-29T13:29:43.523Z,3.10
2018-05-29T13:32:12.797Z,2.27
2018-05-29T13:34:42.089Z,2.90
2018-05-29T13:37:11.532Z,3.00
2018-05-29T13:39:41.440Z,2.67
2018-05-29T13:42:11.126Z,2.70
2018-05-29T13:44:40.942Z,2.60
2018-05-29T13:47:09.902Z,3.00
2018-05-29T13:49:38.797Z,3.00
2018-05-29T13:52:07.755Z,2.60
2018-05-29T13:54:36.653Z,2.80
2018-05-29T13:57:05.537Z,2.80
2018-05-29T13:59:34.429Z,2.80
2018-05-29T14:02:03.530Z,2.93
2018-05-29T14:04:32.652Z,3.23
2018-05-29T14:07:02.376Z,3.37
2018-05-29T14:09:31.397Z,2.90
2018-05-29T14:12:01.055Z,3.10
2018-05-29T14:14:30.403Z,3.10
2018-05-29T14:17:00.882Z,3.50
2018-05-29T14:19:29.803Z,3.63
2018-05-29T14:21:59.476Z,3.10
2018-05-29T14:24:28.370Z,2.87
2018-05-29T14:26:57.258Z,3.00
2018-05-29T14:29:26.285Z,3.13
2018-05-29T14:31:55.295Z,3.00
2018-05-29T14:34:25.060Z,3.23
2018-05-29T14:36:53.978Z,3.07
2018-05-29T14:39:22.984Z,2.90
2018-05-29T14:41:52.901Z,3.60
2018-05-29T14:44:22.564Z,3.10
2018-05-29T14:46:51.462Z,3.93
2018-05-29T14:49:20.353Z,2.87
2018-05-29T14:51:49.273Z,3.30
2018-05-29T14:54:18.937Z,4.23
2018-05-29T14:56:47.829Z,3.50
2018-05-29T14:59:16.728Z,3.20
2018-05-29T15:01:46.064Z,3.10
2018-05-29T15:04:15.732Z,3.00
2018-05-29T15:06:45.402Z,3.37
2018-05-29T15:09:14.320Z,2.87
2018-05-29T15:11:43.667Z,3.40
2018-05-29T15:14:13.581Z,3.20
2018-05-29T15:16:43.502Z,3.20
2018-05-29T15:19:13.158Z,3.80
2018-05-29T15:21:42.057Z,3.13
2018-05-29T15:24:10.954Z,3.10
2018-05-29T15:26:39.847Z,3.07
2018-05-29T15:29:09.049Z,3.10
2018-05-29T15:31:38.468Z,2.90
2018-05-29T15:34:08.125Z,3.07
2018-05-29T15:36:37.012Z,3.20
2018-05-29T15:39:06.161Z,3.77
2018-05-29T15:41:35.826Z,2.93
2018-05-29T15:44:04.717Z,3.10
2018-05-29T15:46:33.608Z,3.37
2018-05-29T15:49:02.909Z,3.00
2018-05-29T15:51:31.793Z,2.70
2018-05-29T15:54:01.130Z,2.83
2018-05-29T15:56:30.807Z,3.00
2018-05-29T15:58:59.765Z,2.70
2018-05-29T16:01:28.649Z,3.50
2018-05-29T16:03:57.549Z,2.90
2018-05-29T16:06:26.485Z,2.80
2018-05-29T16:08:56.136Z,3.03
2018-05-29T16:11:25.610Z,2.60
2018-05-29T16:13:55.525Z,3.40
2018-05-29T16:16:25.177Z,3.33
2018-05-29T16:18:54.204Z,2.90
2018-05-29T16:21:23.086Z,2.90
2018-05-29T16:23:52.315Z,3.77
2018-05-29T16:26:21.982Z,3.37
2018-05-29T16:28:51.318Z,3.43
2018-05-29T16:31:21.232Z,3.03
2018-05-29T16:33:51.142Z,3.33
2018-05-29T16:36:20.886Z,3.00
2018-05-29T16:38:49.784Z,2.83
2018-05-29T16:41:18.671Z,2.87
2018-05-29T16:43:47.557Z,2.70
2018-05-29T16:46:16.609Z,2.90
2018-05-29T16:48:45.909Z,3.10
2018-05-29T16:51:14.803Z,2.90
2018-05-29T16:53:44.564Z,2.50
2018-05-29T16:56:13.481Z,2.47
2018-05-29T16:58:42.386Z,2.77
2018-05-29T17:01:11.281Z,2.53
2018-05-29T17:03:40.287Z,3.33
2018-05-29T17:06:09.945Z,2.70
2018-05-29T17:08:38.889Z,3.23
2018-05-29T17:11:08.382Z,3.20
2018-05-29T17:13:38.416Z,3.13
2018-05-29T17:16:07.309Z,2.93
2018-05-29T17:18:36.216Z,2.80
2018-05-29T17:21:05.102Z,2.50
2018-05-29T17:23:34.260Z,3.00
2018-05-29T17:26:04.172Z,3.40
2018-05-29T17:28:33.355Z,2.93
2018-05-29T17:31:03.031Z,3.03
2018-05-29T17:33:31.910Z,2.93
2018-05-29T17:36:00.807Z,2.80
2018-05-29T17:38:29.820Z,2.43
2018-05-29T17:40:58.701Z,2.90
2018-05-29T17:43:28.001Z,2.70
2018-05-29T17:45:56.902Z,2.87
2018-05-29T17:48:26.100Z,3.10
2018-05-29T17:50:54.989Z,3.10
2018-05-29T17:53:23.884Z,2.90
2018-05-29T17:55:52.777Z,2.80
2018-05-29T17:58:21.777Z,2.97
2018-05-29T18:00:50.685Z,2.93
2018-05-29T18:03:20.342Z,2.50
2018-05-29T18:05:49.228Z,2.67
2018-05-29T18:08:18.129Z,3.17
2018-05-29T18:10:47.430Z,3.03
2018-05-29T18:13:16.586Z,2.70
2018-05-29T18:15:46.057Z,2.63
2018-05-29T18:18:15.701Z,2.80
2018-05-29T18:20:45.028Z,2.47
2018-05-29T18:23:13.881Z,2.60
2018-05-29T18:25:43.241Z,2.97
2018-05-29T18:28:12.125Z,3.00
2018-05-29T18:30:41.036Z,2.93
2018-05-29T18:33:10.942Z,3.10
2018-05-29T18:35:40.864Z,2.90
2018-05-29T18:38:10.357Z,3.00
2018-05-29T18:40:40.029Z,2.80
2018-05-29T18:43:09.001Z,2.73
2018-05-29T18:45:37.900Z,3.00
2018-05-29T18:48:06.911Z,2.60
2018-05-29T18:50:35.835Z,2.60
2018-05-29T18:53:05.485Z,3.20
2018-05-29T18:55:34.840Z,2.47
2018-05-29T18:58:04.512Z,3.17
2018-05-29T19:00:33.463Z,3.90
2018-05-29T19:03:02.342Z,3.07
2018-05-29T19:05:31.313Z,3.20
2018-05-29T19:08:00.614Z,2.80
2018-05-29T19:10:29.824Z,2.67
2018-05-29T19:12:59.118Z,2.90
2018-05-29T19:15:28.764Z,2.83
2018-05-29T19:17:57.659Z,2.80
2018-05-29T19:20:26.559Z,2.80
2018-05-29T19:22:55.740Z,3.20
2018-05-29T19:25:24.580Z,2.90
2018-05-29T19:27:53.894Z,2.70
2018-05-29T19:30:23.555Z,2.63
2018-05-29T19:32:52.574Z,3.40
2018-05-29T19:35:21.585Z,2.40
2018-05-29T19:37:50.674Z,2.60
2018-05-29T19:40:20.326Z,3.30
2018-05-29T19:42:49.610Z,2.60
2018-05-29T19:45:18.901Z,3.03
2018-05-29T19:47:49.516Z,2.67
2018-05-29T19:50:19.418Z,2.13
2018-05-29T19:52:49.334Z,2.67
2018-05-29T19:55:18.994Z,2.70
2018-05-29T19:57:47.929Z,2.87
2018-05-29T20:00:17.590Z,2.50
2018-05-29T20:02:46.489Z,2.90
2018-05-29T20:05:16.147Z,2.77
2018-05-29T20:07:45.824Z,2.20
2018-05-29T20:10:14.714Z,2.60
2018-05-29T20:12:43.620Z,2.70
2018-05-29T20:15:12.493Z,2.30
2018-05-29T20:17:41.921Z,2.93
2018-05-29T20:20:11.568Z,2.30
2018-05-29T20:22:40.923Z,2.67
2018-05-29T20:25:10.585Z,2.57
2018-05-29T20:27:39.862Z,2.40
2018-05-29T20:30:08.764Z,3.13
2018-05-29T20:32:38.041Z,2.37
2018-05-29T20:35:06.959Z,2.87
2018-05-29T20:37:35.909Z,3.10
2018-05-29T20:40:05.816Z,2.47
2018-05-29T20:42:35.730Z,2.47
2018-05-29T20:45:05.644Z,2.57
2018-05-29T20:47:35.680Z,2.47
2018-05-29T20:50:04.615Z,2.20
2018-05-29T20:52:33.755Z,2.70
2018-05-29T20:55:02.643Z,2.80
2018-05-29T20:57:32.311Z,2.73
2018-05-29T21:00:01.209Z,2.57
2018-05-29T21:02:30.119Z,3.10
2018-05-29T21:04:59.778Z,2.67
2018-05-29T21:07:28.724Z,2.87
2018-05-29T21:09:58.381Z,3.37
2018-05-29T21:12:27.278Z,3.37
2018-05-29T21:14:56.241Z,2.60
2018-05-29T21:17:25.145Z,2.97
2018-05-29T21:19:54.266Z,3.13
2018-05-29T21:22:23.156Z,2.70
2018-05-29T21:24:52.064Z,2.97
2018-05-29T21:27:20.960Z,2.17
2018-05-29T21:29:50.618Z,2.43
2018-05-29T21:32:19.756Z,2.70
2018-05-29T21:34:49.418Z,3.00
2018-05-29T21:37:18.704Z,2.83
2018-05-29T21:39:48.374Z,2.47
2018-05-29T21:42:17.345Z,2.90
2018-05-29T21:44:46.765Z,2.70
2018-05-29T21:47:16.430Z,2.73
2018-05-29T21:49:45.316Z,2.40
2018-05-29T21:52:14.226Z,2.43
2018-05-29T21:54:43.114Z,2.33
2018-05-29T21:57:12.012Z,2.87
2018-05-29T21:59:40.929Z,3.13
2018-05-29T22:02:10.592Z,2.57
2018-05-29T22:04:39.493Z,2.30
2018-05-29T22:07:08.393Z,2.27
2018-05-29T22:09:37.410Z,2.50
2018-05-29T22:12:07.242Z,1.80
2018-05-29T22:14:36.148Z,2.30
2018-05-29T22:17:05.029Z,2.53
2018-05-29T22:19:34.321Z,2.80
2018-05-29T22:22:03.215Z,2.50
2018-05-29T22:24:32.098Z,2.40
2018-05-29T22:27:01.258Z,2.60
2018-05-29T22:29:30.112Z,2.20
2018-05-29T22:31:59.106Z,2.70
2018-05-29T22:34:28.001Z,3.27
2018-05-29T22:36:56.901Z,2.07
2018-05-29T22:39:25.808Z,2.23
2018-05-29T22:41:55.116Z,2.87
2018-05-29T22:44:24.774Z,2.40
2018-05-29T22:46:54.540Z,2.40
2018-05-29T22:49:24.198Z,2.03
2018-05-29T22:51:53.555Z,2.20
2018-05-29T22:54:22.458Z,2.10
2018-05-29T22:56:51.816Z,2.27
2018-05-29T22:59:20.713Z,1.93
2018-05-29T23:01:50.389Z,2.30
2018-05-29T23:04:19.272Z,2.50
2018-05-29T23:06:48.168Z,2.20
2018-05-29T23:09:17.058Z,2.43
2018-05-29T23:11:45.953Z,2.17
2018-05-29T23:14:15.240Z,2.10
2018-05-29T23:16:44.156Z,2.10
2018-05-29T23:19:13.249Z,2.27
2018-05-29T23:21:43.085Z,2.40
2018-05-29T23:24:13.117Z,2.40
2018-05-29T23:26:42.087Z,2.70
2018-05-29T23:29:11.742Z,2.40
2018-05-29T23:31:40.644Z,2.47
2018-05-29T23:34:09.538Z,2.37
2018-05-29T23:36:38.428Z,3.00
2018-05-29T23:39:08.380Z,2.60
2018-05-29T23:41:38.292Z,2.10
2018-05-29T23:44:08.205Z,2.40
2018-05-29T23:46:37.866Z,1.90
2018-05-29T23:49:06.759Z,2.00
2018-05-29T23:51:35.659Z,1.87
2018-05-29T23:54:04.552Z,2.20
2018-05-29T23:56:33.456Z,1.87
2018-05-29T23:59:03.108Z,2.30
